Time;durP1;ratioP1;P1;durP2;ratioP2;P2;SDS_P1;SDS_P2;PMS_P1;PMS_P2;Temp;Humidity;BMP_temperature;BMP_pressure;BME280_temperature;BME280_humidity;BME280_pressure;Samples;Min_cycle;Max_cycle;Signal;HPM_P1;HPM_P2
2021/05/09 00:01:10;;;;;;;1.98;0.40;;;10.80;99.90;;;10.18;69.64;101068.19;5028809;28;20037;-50
2021/05/09 00:03:36;;;;;;;1.70;0.40;;;10.70;99.90;;;10.24;69.49;101059.09;5027455;28;20116;-52
2021/05/09 00:06:03;;;;;;;1.55;0.32;;;10.80;99.90;;;10.29;68.95;101055.16;5028203;28;20124;-49
2021/05/09 00:08:28;;;;;;;0.90;0.40;;;10.80;99.90;;;10.30;68.88;101051.59;5007187;28;20076;-49
2021/05/09 00:10:54;;;;;;;2.47;0.63;;;10.80;99.90;;;10.32;68.67;101056.66;5028628;28;20041;-53
2021/05/09 00:13:20;;;;;;;2.28;0.40;;;10.80;99.90;;;10.24;69.13;101049.50;5027807;28;20041;-50
2021/05/09 00:15:49;;;;;;;1.48;0.40;;;10.80;99.90;;;10.14;69.75;101059.00;5027656;28;20037;-52
2021/05/09 00:18:15;;;;;;;1.35;0.60;;;10.70;99.90;;;10.09;69.63;101052.50;5028089;28;20064;-46
2021/05/09 00:20:41;;;;;;;1.23;0.40;;;10.70;99.90;;;10.08;69.50;101056.88;5029124;28;20045;-50
2021/05/09 00:23:07;;;;;;;2.25;0.30;;;10.60;99.90;;;10.06;69.31;101058.78;5025887;28;20033;-50
2021/05/09 00:25:33;;;;;;;1.77;0.70;;;10.60;99.90;;;10.06;69.49;101061.41;5027201;28;20033;-47
2021/05/09 00:27:59;;;;;;;2.30;0.30;;;10.60;99.90;;;10.05;70.17;101059.75;5028247;28;20033;-48
2021/05/09 00:30:25;;;;;;;1.58;0.40;;;10.60;99.90;;;10.02;70.31;101065.19;5028379;28;20154;-51
2021/05/09 00:32:51;;;;;;;6.15;0.50;;;10.50;99.90;;;9.91;71.19;101055.69;5027948;28;20044;-53
2021/05/09 00:35:16;;;;;;;1.35;0.50;;;10.50;99.90;;;9.80;73.03;101060.13;5028660;28;20038;-54
2021/05/09 00:37:42;;;;;;;2.25;0.40;;;10.40;99.90;;;9.65;72.84;101067.38;5026446;28;20800;-50
2021/05/09 00:40:09;;;;;;;3.08;0.35;;;10.20;99.90;;;9.51;73.77;101058.09;5028316;28;20463;-52
2021/05/09 00:42:36;;;;;;;2.75;0.40;;;10.10;99.90;;;9.42;74.43;101063.22;5027381;28;20044;-51
2021/05/09 00:45:05;;;;;;;3.10;0.35;;;10.00;99.90;;;9.36;74.92;101067.13;5027361;28;21467;-48
2021/05/09 00:47:31;;;;;;;1.80;0.60;;;10.00;99.90;;;9.31;75.40;101061.47;5007974;28;20065;-52
2021/05/09 00:49:57;;;;;;;6.38;0.60;;;9.90;99.90;;;9.26;74.61;101056.63;5009906;28;20076;-51
2021/05/09 00:52:26;;;;;;;3.47;0.35;;;9.90;99.90;;;9.28;74.63;101059.09;5028252;28;20033;-47
2021/05/09 00:54:58;;;;;;;0.95;0.35;;;9.80;99.90;;;9.30;75.52;101060.63;5027606;28;20523;-50
2021/05/09 00:57:25;;;;;;;1.58;0.60;;;9.80;99.90;;;9.38;74.74;101052.22;5011479;28;20041;-49
2021/05/09 00:59:52;;;;;;;0.75;0.38;;;9.90;99.90;;;9.40;75.14;101052.94;5014538;28;20041;-51
2021/05/09 01:02:19;;;;;;;3.10;0.52;;;9.90;99.90;;;9.45;75.26;101047.38;5031394;28;20040;-50
2021/05/09 01:04:46;;;;;;;2.47;0.30;;;9.90;99.90;;;9.45;74.83;101042.97;5032340;28;20064;-50
2021/05/09 01:07:15;;;;;;;2.10;0.30;;;10.00;99.90;;;9.43;75.07;101044.06;5030744;28;20091;-50
2021/05/09 01:09:41;;;;;;;1.73;0.40;;;10.00;99.90;;;9.37;74.48;101039.34;5031049;28;20061;-50
2021/05/09 01:12:14;;;;;;;1.95;0.35;;;9.90;99.90;;;9.34;75.44;101045.63;5032105;28;20057;-47
2021/05/09 01:14:42;;;;;;;2.78;0.32;;;9.90;99.90;;;9.35;74.53;101039.47;5031261;28;20037;-50
2021/05/09 01:17:08;;;;;;;1.73;0.30;;;9.90;99.90;;;9.40;74.21;101023.50;5030469;28;20033;-51
2021/05/09 01:19:36;;;;;;;3.03;0.40;;;9.90;99.90;;;9.40;74.34;101026.09;5013373;28;20030;-52
2021/05/09 01:22:04;;;;;;;0.70;0.20;;;9.90;99.90;;;9.35;74.39;101031.66;5031829;28;20056;-48
2021/05/09 01:24:30;;;;;;;0.57;0.30;;;9.90;99.90;;;9.34;74.30;101030.03;5029836;28;20116;-52
2021/05/09 01:26:56;;;;;;;4.25;0.40;;;9.90;99.90;;;9.34;73.92;101030.03;5030990;28;20069;-50
2021/05/09 01:29:23;;;;;;;3.20;0.40;;;9.90;99.90;;;9.34;73.91;101035.22;5032093;28;20033;-50
2021/05/09 01:31:51;;;;;;;3.00;0.30;;;9.90;99.90;;;9.33;73.73;101028.38;5012629;28;20034;-52
2021/05/09 01:34:17;;;;;;;1.23;0.40;;;9.90;99.90;;;9.34;73.34;101039.59;5031600;28;20029;-52
2021/05/09 01:36:43;;;;;;;1.52;0.30;;;9.90;99.90;;;9.29;73.37;101027.78;5030799;28;20041;-50
2021/05/09 01:39:09;;;;;;;1.48;0.68;;;9.80;99.90;;;9.32;73.16;101026.72;5011481;28;20096;-52
2021/05/09 01:41:35;;;;;;;2.53;0.50;;;9.80;99.90;;;9.28;73.22;101040.91;5031794;28;20397;-48
2021/05/09 01:44:02;;;;;;;1.75;0.28;;;9.80;99.90;;;9.26;73.39;101032.41;5030909;28;20048;-46
2021/05/09 01:46:28;;;;;;;1.45;0.40;;;9.80;99.90;;;9.25;73.48;101031.56;5030486;28;20035;-48
2021/05/09 01:48:54;;;;;;;0.60;0.20;;;9.80;99.90;;;9.24;73.63;101032.53;5029989;28;20037;-52
2021/05/09 01:51:20;;;;;;;1.83;0.30;;;9.80;99.90;;;9.21;74.02;101022.38;5031559;28;20532;-51
2021/05/09 01:53:47;;;;;;;1.90;0.40;;;9.80;99.90;;;9.22;73.63;101020.59;5028755;28;20037;-49
2021/05/09 01:56:16;;;;;;;1.25;0.30;;;9.70;99.90;;;9.22;73.94;101018.00;5031429;28;20029;-50
2021/05/09 01:58:42;;;;;;;2.40;0.20;;;9.70;99.90;;;9.22;74.24;101015.38;5028141;28;20744;-47
2021/05/09 02:01:12;;;;;;;2.75;0.30;;;9.70;99.90;;;9.23;73.46;101017.03;5029303;28;20503;-48
2021/05/09 02:03:38;;;;;;;0.60;0.30;;;9.70;99.90;;;9.20;73.60;101018.13;5031334;28;20451;-50
2021/05/09 02:06:04;;;;;;;3.00;0.40;;;9.70;99.90;;;9.19;74.01;101011.25;5030117;28;20033;-52
2021/05/09 02:08:30;;;;;;;3.90;0.30;;;9.70;99.90;;;9.14;73.76;101012.56;5009581;28;20545;-49
2021/05/09 02:10:56;;;;;;;1.00;0.30;;;9.70;99.90;;;9.11;74.33;101003.25;5030014;28;20041;-49
2021/05/09 02:13:22;;;;;;;1.98;0.30;;;9.70;99.90;;;9.13;74.14;101003.13;5030258;28;20132;-47
2021/05/09 02:15:48;;;;;;;1.17;0.40;;;9.70;99.90;;;9.12;74.15;100993.66;5030337;28;20061;-46
2021/05/09 02:18:14;;;;;;;0.95;0.30;;;9.60;99.90;;;9.10;74.10;101005.97;5029358;28;20208;-47
2021/05/09 02:20:40;;;;;;;0.80;0.30;;;9.60;99.90;;;9.06;74.80;101000.19;5029626;28;20547;-47
2021/05/09 02:23:06;;;;;;;1.02;0.30;;;9.60;99.90;;;9.01;74.99;101009.28;5030009;28;20041;-53
2021/05/09 02:25:32;;;;;;;1.17;0.30;;;9.60;99.90;;;8.96;75.63;101004.47;5029538;28;20033;-50
2021/05/09 02:27:58;;;;;;;1.95;0.50;;;9.50;99.90;;;8.89;75.90;101003.31;5030972;28;20029;-50
2021/05/09 02:30:24;;;;;;;0.80;0.20;;;9.50;99.90;;;8.79;77.92;101008.38;5029448;28;20106;-48
2021/05/09 02:32:50;;;;;;;3.08;0.40;;;9.40;99.90;;;8.68;78.39;101012.75;5030517;28;20026;-52
2021/05/09 02:35:16;;;;;;;0.77;0.35;;;9.30;99.90;;;8.51;80.67;101014.06;5029380;28;20037;-52
2021/05/09 02:37:41;;;;;;;0.95;0.40;;;9.20;99.90;;;8.40;80.36;101012.31;5030691;28;20040;-53
2021/05/09 02:40:08;;;;;;;5.38;0.40;;;9.00;99.90;;;8.42;79.19;101012.19;5028747;28;20450;-50
2021/05/09 02:42:35;;;;;;;3.95;0.43;;;9.00;99.90;;;8.46;78.98;101016.19;5030304;28;20029;-51
2021/05/09 02:45:03;;;;;;;1.85;0.30;;;9.00;99.90;;;8.51;79.04;101014.88;5029482;28;20041;-50
2021/05/09 02:47:29;;;;;;;1.63;0.30;;;9.00;99.90;;;8.53;78.71;101009.56;5030014;28;20470;-52
2021/05/09 02:50:04;;;;;;;1.90;0.40;;;9.00;99.90;;;8.52;78.83;101015.72;5029176;28;20129;-50
2021/05/09 02:52:30;;;;;;;1.25;0.30;;;9.10;99.90;;;8.53;78.60;101017.38;5030451;28;20241;-51
2021/05/09 02:54:56;;;;;;;1.05;0.40;;;9.00;99.90;;;8.54;78.80;101013.81;5027077;28;20523;-51
2021/05/09 02:57:22;;;;;;;0.88;0.50;;;9.10;99.90;;;8.54;78.55;101017.25;5029916;28;20126;-53
2021/05/09 02:59:48;;;;;;;1.58;0.50;;;9.10;99.90;;;8.56;78.62;101014.53;5029551;28;20161;-54
2021/05/09 03:02:14;;;;;;;1.60;0.30;;;9.10;99.90;;;8.61;78.36;101015.00;5030023;28;20523;-54
2021/05/09 03:04:40;;;;;;;3.63;0.30;;;9.10;99.90;;;8.63;78.19;101007.91;5029015;28;20089;-51
2021/05/09 03:07:07;;;;;;;2.67;0.40;;;9.10;99.90;;;8.67;77.77;101017.13;5028892;28;20041;-48
2021/05/09 03:09:33;;;;;;;1.02;0.30;;;9.20;99.90;;;8.73;76.96;101014.06;5010395;28;20334;-52
2021/05/09 03:11:59;;;;;;;4.63;0.30;;;9.20;99.90;;;8.73;77.04;101019.25;5029654;28;20040;-51
2021/05/09 03:14:25;;;;;;;1.67;0.28;;;9.30;99.90;;;8.74;76.47;101015.72;5028607;28;20038;-52
2021/05/09 03:16:52;;;;;;;4.13;0.40;;;9.20;99.90;;;8.72;76.77;101016.78;5029898;28;20465;-49
2021/05/09 03:19:17;;;;;;;1.52;0.30;;;9.20;99.90;;;8.71;77.22;101015.13;5028018;28;20064;-47
2021/05/09 03:21:43;;;;;;;1.52;0.30;;;9.20;99.90;;;8.67;77.38;101019.72;5029502;28;20497;-51
2021/05/09 03:24:10;;;;;;;2.25;0.30;;;9.20;99.90;;;8.64;77.53;101023.38;5027368;28;20041;-51
2021/05/09 03:26:37;;;;;;;4.15;0.47;;;9.20;99.90;;;8.62;78.25;101014.06;5028638;28;20045;-50
2021/05/09 03:29:05;;;;;;;3.92;0.80;;;9.20;99.90;;;8.61;77.84;101009.81;5028306;28;20037;-54
2021/05/09 03:31:31;;;;;;;7.03;0.77;;;9.10;99.90;;;8.59;77.97;101022.91;5029394;28;20049;-51
2021/05/09 03:33:57;;;;;;;0.82;0.50;;;9.10;99.90;;;8.59;78.01;101030.72;5028435;28;20115;-49
2021/05/09 03:36:23;;;;;;;0.85;0.30;;;9.10;99.90;;;8.57;78.11;101024.81;5026073;28;20033;-51
2021/05/09 03:38:50;;;;;;;0.80;0.30;;;9.10;99.90;;;8.56;78.35;101027.50;5026555;28;20041;-49
2021/05/09 03:41:16;;;;;;;1.05;0.40;;;9.10;99.90;;;8.52;78.44;101020.91;5028258;28;20045;-54
2021/05/09 03:43:43;;;;;;;3.80;0.40;;;9.10;99.90;;;8.47;79.14;101038.63;5028684;28;20033;-52
2021/05/09 03:46:09;;;;;;;1.35;0.35;;;9.00;99.90;;;8.45;79.24;101035.31;5028346;28;20061;-52
2021/05/09 03:48:36;;;;;;;1.65;0.30;;;9.00;99.90;;;8.45;79.24;101045.72;5028339;28;20455;-53
2021/05/09 03:51:03;;;;;;;1.33;0.30;;;9.00;99.90;;;8.45;79.05;101032.72;5029147;28;20045;-52
2021/05/09 03:53:30;;;;;;;2.55;0.40;;;9.00;99.90;;;8.46;78.64;101032.63;5027913;28;20479;-53
2021/05/09 03:55:57;;;;;;;0.90;0.30;;;9.00;99.90;;;8.55;78.31;101037.06;5028089;28;20401;-51
2021/05/09 03:58:23;;;;;;;0.60;0.35;;;9.00;99.90;;;8.64;77.42;101044.16;5028661;28;20044;-48
2021/05/09 04:00:49;;;;;;;0.93;0.40;;;9.10;99.90;;;8.76;76.71;101034.59;5028049;28;20444;-46
2021/05/09 04:03:44;;;;;;;3.10;0.60;;;9.20;99.90;;;8.69;77.38;101038.63;5028647;28;20075;-53
2021/05/09 04:06:10;;;;;;;1.33;0.63;;;9.20;99.90;;;8.54;77.08;101045.81;5006363;28;20119;-49
2021/05/09 04:08:36;;;;;;;0.85;0.40;;;9.10;99.90;;;8.51;77.43;101042.63;5027033;28;20057;-48
2021/05/09 04:11:02;;;;;;;4.57;0.55;;;9.10;99.90;;;8.57;77.10;101045.56;5008639;28;20391;-53
2021/05/09 04:13:28;;;;;;;1.05;0.40;;;9.10;99.90;;;8.73;76.35;101041.81;5028743;28;20397;-49
2021/05/09 04:15:54;;;;;;;1.30;0.45;;;9.30;99.90;;;8.97;75.60;101039.91;5027984;28;20523;-54
2021/05/09 04:18:21;;;;;;;2.45;0.40;;;9.40;99.90;;;10.08;73.05;101035.22;5028435;28;20038;-52
2021/05/09 04:20:46;;;;;;;2.88;0.30;;;10.50;99.90;;;11.47;68.79;101037.94;5027481;28;20033;-49
2021/05/09 04:23:16;;;;;;;3.10;0.30;;;12.40;99.90;;;12.03;65.46;101034.66;5027545;28;20504;-53
2021/05/09 04:25:48;;;;;;;7.10;0.40;;;13.60;99.90;;;12.73;63.99;101043.81;5027541;28;20048;-50
2021/05/09 04:28:15;;;;;;;2.17;0.77;;;14.30;98.30;;;13.12;63.70;101040.97;5008854;28;20025;-52
2021/05/09 04:30:41;;;;;;;1.75;0.30;;;14.90;97.20;;;13.49;62.41;101046.94;5008573;28;20041;-50
2021/05/09 04:33:07;;;;;;;2.63;0.30;;;15.60;93.90;;;13.61;62.07;101045.75;5028163;28;20527;-54
2021/05/09 04:35:35;;;;;;;1.88;0.30;;;15.80;92.00;;;14.09;60.42;101049.75;5027354;28;20083;-52
2021/05/09 04:38:03;;;;;;;1.30;0.52;;;16.40;90.30;;;13.87;60.58;101048.41;5027114;28;20101;-53
2021/05/09 04:40:29;;;;;;;1.30;0.28;;;16.40;85.30;;;13.82;60.61;101049.84;5009412;28;20041;-53
2021/05/09 04:43:04;;;;;;;0.60;0.20;;;16.20;85.90;;;13.19;61.43;101055.16;5027651;28;20034;-53
2021/05/09 04:45:30;;;;;;;2.57;0.40;;;15.80;86.40;;;13.54;60.93;101049.94;5027465;28;20029;-47
2021/05/09 04:47:56;;;;;;;2.55;1.17;;;15.80;87.10;;;14.05;59.77;101052.81;5028216;28;20111;-49
2021/05/09 04:50:22;;;;;;;1.48;0.20;;;16.20;84.70;;;14.42;57.57;101065.69;5028323;28;20066;-46
2021/05/09 04:52:48;;;;;;;3.15;0.30;;;16.90;79.40;;;14.14;58.78;101057.13;5026239;28;20393;-48
2021/05/09 04:55:14;;;;;;;2.05;0.30;;;16.50;80.70;;;14.46;58.09;101043.44;5027230;28;20052;-51
2021/05/09 04:57:40;;;;;;;0.63;0.20;;;16.80;79.70;;;14.72;56.87;101046.81;5027113;28;20377;-54
2021/05/09 05:00:07;;;;;;;1.30;0.20;;;17.20;77.20;;;14.95;56.86;101049.72;5026572;28;20033;-49
2021/05/09 05:02:33;;;;;;;3.75;0.40;;;17.50;76.60;;;15.13;55.34;101044.34;5028054;28;20034;-54
2021/05/09 05:04:59;;;;;;;0.70;0.20;;;18.00;72.70;;;15.51;53.81;101054.28;5027222;28;20033;-54
2021/05/09 05:07:24;;;;;;;1.30;0.30;;;18.30;70.60;;;15.84;53.42;101051.69;5026183;28;20036;-50
2021/05/09 05:09:50;;;;;;;0.52;0.20;;;18.70;68.60;;;16.14;53.15;101051.00;5026072;28;20142;-53
2021/05/09 05:12:16;;;;;;;0.80;0.30;;;19.00;67.80;;;16.23;51.80;101057.09;5026912;28;20038;-51
2021/05/09 05:14:43;;;;;;;1.92;0.40;;;19.10;66.30;;;16.09;52.95;101048.06;5028154;28;20531;-54
2021/05/09 05:17:10;;;;;;;1.17;0.40;;;19.10;66.90;;;16.13;52.19;101062.50;5026556;28;20049;-51
2021/05/09 05:19:35;;;;;;;5.88;0.47;;;19.30;64.10;;;15.50;53.56;101063.16;5027750;28;20029;-54
2021/05/09 05:22:03;;;;;;;0.50;0.30;;;18.70;66.30;;;15.89;53.05;101066.00;5026544;28;20400;-49
2021/05/09 05:24:29;;;;;;;0.82;0.20;;;18.80;65.40;;;16.05;52.21;101054.66;5026942;28;20107;-54
2021/05/09 05:26:55;;;;;;;0.90;0.30;;;18.90;64.80;;;16.12;52.80;101063.50;5027738;28;20037;-53
2021/05/09 05:29:21;;;;;;;4.18;0.40;;;19.10;65.20;;;16.27;52.08;101072.34;5027826;28;20049;-51
2021/05/09 05:31:50;;;;;;;2.25;0.20;;;19.20;63.50;;;16.09;52.11;101076.97;5027838;28;20046;-53
2021/05/09 05:34:17;;;;;;;1.60;0.28;;;19.20;63.60;;;16.13;52.29;101065.13;5027607;28;20556;-52
2021/05/09 05:36:43;;;;;;;1.00;0.30;;;19.30;63.60;;;16.17;52.02;101063.81;5027722;28;20500;-53
2021/05/09 05:39:09;;;;;;;1.63;0.30;;;19.40;62.50;;;16.79;50.87;101055.31;5028018;28;20033;-52
2021/05/09 05:41:35;;;;;;;3.40;0.38;;;20.00;61.50;;;17.70;48.42;101055.47;5027707;28;20388;-51
2021/05/09 05:44:01;;;;;;;1.50;0.40;;;20.90;59.60;;;18.20;47.22;101052.22;5030850;28;20048;-52
2021/05/09 05:46:28;;;;;;;0.60;0.20;;;21.40;58.00;;;18.34;46.11;101047.16;5031482;28;20037;-52
2021/05/09 05:48:54;;;;;;;4.10;0.30;;;21.40;56.60;;;18.71;46.06;101047.06;5031156;28;20045;-50
2021/05/09 05:51:20;;;;;;;0.95;0.22;;;22.00;55.40;;;19.02;45.46;101051.28;5031704;28;20038;-53
2021/05/09 05:53:47;;;;;;;3.75;0.30;;;22.70;54.70;;;18.99;45.40;101055.13;5031072;28;20051;-52
2021/05/09 05:56:13;;;;;;;2.47;0.30;;;22.90;52.70;;;18.86;45.08;101058.44;5031141;28;20048;-47
2021/05/09 05:58:39;;;;;;;0.75;0.30;;;22.80;52.60;;;18.19;47.01;101049.75;5013628;28;20026;-49
2021/05/09 06:01:05;;;;;;;1.05;0.30;;;22.10;53.80;;;18.21;46.52;101048.59;5031070;28;20531;-48
2021/05/09 06:03:31;;;;;;;1.25;0.30;;;22.10;53.40;;;18.59;45.98;101045.84;5030927;28;20371;-47
2021/05/09 06:05:57;;;;;;;0.93;0.40;;;22.10;54.10;;;18.25;46.18;101059.59;5031217;28;20485;-53
2021/05/09 06:08:24;;;;;;;3.50;0.38;;;22.00;53.40;;;18.37;46.33;101046.78;5031220;28;20092;-49
2021/05/09 06:10:50;;;;;;;1.98;0.30;;;21.90;54.00;;;18.26;46.27;101055.97;5030809;28;20121;-52
2021/05/09 06:13:22;;;;;;;2.55;0.30;;;22.00;53.60;;;18.55;45.37;101057.78;5030767;28;20029;-54
2021/05/09 06:15:49;;;;;;;1.30;0.20;;;22.10;53.40;;;18.16;47.08;101060.66;5030617;28;20037;-50
2021/05/09 06:18:17;;;;;;;1.35;0.30;;;22.00;53.40;;;18.45;46.58;101060.69;5030653;28;20029;-50
2021/05/09 06:20:43;;;;;;;0.52;0.20;;;21.90;53.90;;;18.02;47.29;101054.34;5030573;28;20040;-51
2021/05/09 06:23:12;;;;;;;1.52;0.25;;;21.50;54.40;;;18.17;47.01;101049.94;5030913;28;20056;-49
2021/05/09 06:25:38;;;;;;;2.33;0.30;;;21.70;55.00;;;18.19;46.60;101057.66;5030676;28;20049;-53
2021/05/09 06:28:05;;;;;;;0.40;0.20;;;21.70;54.40;;;18.22;46.91;101052.84;5030465;28;20577;-49
2021/05/09 06:30:32;;;;;;;2.70;1.35;;;21.70;54.80;;;18.13;47.04;101055.75;5030457;28;20045;-52
2021/05/09 06:32:58;;;;;;;0.77;0.30;;;21.90;53.90;;;18.72;45.21;101059.25;5030705;28;20026;-54
2021/05/09 06:35:24;;;;;;;0.55;0.20;;;22.10;53.80;;;18.68;46.13;101057.16;5030196;28;20098;-53
2021/05/09 06:37:52;;;;;;;0.50;0.20;;;22.30;53.00;;;19.20;45.02;101062.28;5030293;28;20033;-48
2021/05/09 06:40:20;;;;;;;5.55;0.30;;;23.00;52.00;;;19.73;43.59;101055.72;5030458;28;20165;-49
2021/05/09 06:42:53;;;;;;;0.82;0.30;;;23.60;51.00;;;19.93;43.56;101055.88;5030123;28;20032;-47
2021/05/09 06:45:28;;;;;;;0.70;0.20;;;24.00;50.60;;;20.53;41.85;101059.78;5030208;28;20033;-47
2021/05/09 06:47:56;;;;;;;1.75;0.20;;;24.70;48.60;;;20.98;41.36;101055.72;5013267;28;20041;-46
2021/05/09 06:50:22;;;;;;;1.55;0.30;;;25.30;47.90;;;21.04;41.42;101062.03;5030068;28;20111;-46
2021/05/09 06:52:49;;;;;;;1.85;0.30;;;25.50;47.80;;;20.71;41.90;101051.31;5012125;28;20137;-50
2021/05/09 06:55:15;;;;;;;0.80;0.30;;;25.20;48.10;;;20.96;41.47;101047.13;5030009;28;20116;-46
2021/05/09 06:57:41;;;;;;;0.60;0.30;;;25.40;47.60;;;21.25;40.75;101050.53;5030021;28;20155;-47
2021/05/09 07:00:10;;;;;;;0.90;0.30;;;25.40;47.30;;;21.24;40.41;101056.84;5029760;28;20773;-46
2021/05/09 07:02:36;;;;;;;0.70;0.30;;;25.30;47.40;;;21.33;40.02;101058.28;5030054;28;20496;-46
2021/05/09 07:05:03;;;;;;;3.00;0.30;;;25.70;46.80;;;21.12;40.64;101051.28;5029833;28;20036;-47
2021/05/09 07:07:29;;;;;;;1.33;0.30;;;25.70;46.60;;;21.39;40.64;101045.03;5029781;28;20045;-47
2021/05/09 07:09:55;;;;;;;0.75;0.30;;;25.90;46.40;;;20.96;40.97;101051.63;5029627;28;20406;-51
2021/05/09 07:12:21;;;;;;;2.45;0.20;;;26.00;46.10;;;21.41;40.05;101043.00;5029472;28;20041;-47
2021/05/09 07:14:48;;;;;;;1.77;0.57;;;25.90;46.10;;;21.29;40.33;101030.53;5029645;28;20052;-46
2021/05/09 07:17:15;;;;;;;2.53;0.22;;;25.80;45.90;;;21.61;39.32;101040.38;5029936;28;20037;-46
2021/05/09 07:19:41;;;;;;;0.55;0.20;;;25.50;45.80;;;21.46;39.54;101032.63;5028765;28;20046;-49
2021/05/09 07:22:25;;;;;;;1.58;0.30;;;24.40;47.90;;;21.11;39.59;101031.09;5029276;28;20037;-49
2021/05/09 07:24:51;;;;;;;0.60;0.20;;;22.90;50.60;;;20.06;41.50;101029.53;5026786;28;20041;-50
2021/05/09 07:27:17;;;;;;;2.88;0.30;;;21.30;54.00;;;19.38;43.16;101020.38;5028821;28;20786;-46
2021/05/09 07:29:42;;;;;;;1.92;0.30;;;20.40;56.50;;;19.25;44.21;101028.19;5025622;28;20037;-48
2021/05/09 07:32:08;;;;;;;2.38;0.40;;;20.10;58.50;;;19.19;44.31;101026.31;5028874;28;20103;-54
2021/05/09 07:34:34;;;;;;;1.80;0.43;;;19.70;59.10;;;18.73;45.19;101026.59;5026448;28;20048;-44
2021/05/09 07:37:00;;;;;;;1.10;0.40;;;19.40;59.40;;;18.98;44.62;101019.16;5029105;28;20033;-51
2021/05/09 07:39:26;;;;;;;2.67;0.32;;;19.30;60.00;;;19.06;44.56;101016.41;5028803;28;20144;-50
2021/05/09 07:41:52;;;;;;;1.25;0.50;;;19.40;60.20;;;18.86;45.22;101031.22;5029732;28;20083;-47
2021/05/09 07:44:18;;;;;;;2.17;0.40;;;19.40;60.30;;;18.97;45.22;101024.63;5011560;28;20118;-47
2021/05/09 07:46:44;;;;;;;1.95;0.30;;;19.40;60.50;;;19.26;43.81;101021.91;5029433;28;20096;-53
2021/05/09 07:49:10;;;;;;;0.93;0.38;;;19.50;59.80;;;19.43;42.87;101023.28;5028982;28;20044;-54
2021/05/09 07:51:39;;;;;;;2.42;0.60;;;19.60;59.10;;;19.69;42.52;101019.28;5028819;28;20457;-53
2021/05/09 07:54:05;;;;;;;1.88;0.60;;;19.90;59.30;;;20.11;42.01;101031.59;5028614;28;20049;-53
2021/05/09 07:56:33;;;;;;;0.88;0.40;;;20.20;58.60;;;20.40;41.74;101023.47;5029071;28;20045;-53
2021/05/09 07:58:59;;;;;;;3.17;0.50;;;20.70;58.40;;;20.69;41.18;101019.75;5029001;28;20037;-53
2021/05/09 08:01:25;;;;;;;2.25;0.60;;;21.00;57.80;;;20.97;40.95;101024.94;5010725;28;20482;-51
2021/05/09 08:03:51;;;;;;;1.70;0.30;;;21.20;57.60;;;21.09;40.31;101017.22;5028894;28;20037;-49
2021/05/09 08:06:16;;;;;;;1.30;0.40;;;21.50;56.60;;;20.84;40.34;101028.34;5028182;28;20068;-53
2021/05/09 08:08:42;;;;;;;1.20;0.35;;;21.40;56.10;;;21.06;40.16;101026.38;5028565;28;20515;-49
2021/05/09 08:11:08;;;;;;;1.13;0.30;;;21.40;56.50;;;21.29;39.64;101020.75;5028637;28;20037;-48
2021/05/09 08:13:34;;;;;;;0.63;0.30;;;21.60;56.20;;;21.27;38.61;101017.50;5028661;28;20037;-49
2021/05/09 08:16:00;;;;;;;1.85;0.50;;;21.70;54.70;;;21.22;38.39;101021.78;5028978;28;20068;-47
2021/05/09 08:18:26;;;;;;;1.52;0.50;;;21.60;54.30;;;21.23;38.12;101020.75;5028579;28;20033;-46
2021/05/09 08:20:56;;;;;;;1.65;0.40;;;21.70;54.00;;;21.38;37.69;101019.53;5028336;28;20026;-47
2021/05/09 08:23:23;;;;;;;2.38;0.38;;;21.80;53.80;;;21.59;37.88;101023.88;5028660;28;20033;-51
2021/05/09 08:25:49;;;;;;;1.10;0.47;;;21.90;54.00;;;20.94;38.39;101021.88;5028427;28;20485;-47
2021/05/09 08:28:15;;;;;;;0.98;0.30;;;21.50;53.50;;;21.31;38.29;101016.06;5028475;28;20488;-51
2021/05/09 08:30:41;;;;;;;5.10;0.40;;;21.50;54.40;;;21.48;37.79;101022.63;5028353;28;20034;-50
2021/05/09 08:33:07;;;;;;;3.25;0.60;;;21.70;53.90;;;21.35;37.29;101014.66;5028621;28;20111;-53
2021/05/09 08:35:33;;;;;;;2.78;0.40;;;21.80;53.10;;;21.45;37.52;101012.44;5028710;28;20048;-48
2021/05/09 08:37:59;;;;;;;2.63;0.50;;;21.80;53.00;;;22.17;36.47;101008.97;5028227;28;20092;-52
2021/05/09 08:40:25;;;;;;;2.28;0.52;;;22.20;53.30;;;22.23;36.07;101009.13;5028096;28;20037;-49
2021/05/09 08:42:52;;;;;;;2.65;0.60;;;22.50;52.40;;;21.80;36.17;101001.59;5028863;28;20038;-47
2021/05/09 08:45:19;;;;;;;2.75;0.40;;;22.30;51.50;;;21.57;36.45;101010.00;5028260;28;20033;-50
2021/05/09 08:47:45;;;;;;;2.67;0.52;;;22.00;51.20;;;21.34;36.10;101007.72;5028080;28;20495;-53
2021/05/09 08:50:18;;;;;;;5.35;0.60;;;21.80;51.10;;;21.38;35.16;101010.78;5028091;28;20026;-49
2021/05/09 08:52:48;;;;;;;2.63;0.70;;;21.80;51.10;;;21.70;35.02;101001.22;5027977;28;20455;-50
2021/05/09 08:55:27;;;;;;;1.42;0.50;;;21.90;51.20;;;21.75;34.32;100999.56;5028218;28;20087;-49
2021/05/09 08:57:56;;;;;;;1.85;0.80;;;22.00;50.30;;;22.16;34.68;101001.22;5028316;28;20030;-51
2021/05/09 09:00:24;;;;;;;4.18;1.10;;;22.30;50.90;;;22.47;34.64;101008.47;5026879;28;20037;-50
2021/05/09 09:02:50;;;;;;;3.33;0.82;;;22.60;51.00;;;22.61;34.56;101002.09;5009792;28;20430;-49
2021/05/09 09:05:16;;;;;;;1.48;0.70;;;22.90;50.50;;;22.04;35.13;101006.31;5027784;28;20124;-48
2021/05/09 09:07:49;;;;;;;2.85;0.60;;;22.70;49.90;;;21.97;35.04;101002.81;5010074;28;20030;-50
2021/05/09 09:10:45;;;;;;;2.25;0.75;;;22.40;50.60;;;21.44;35.84;101002.84;5010024;28;20029;-48
2021/05/09 09:13:28;;;;;;;1.15;0.60;;;22.10;50.50;;;21.24;36.14;101006.50;5027772;28;20068;-49
2021/05/09 09:16:04;;;;;;;2.22;0.40;;;21.70;51.30;;;21.73;36.04;100993.69;5028135;28;20033;-54
2021/05/09 09:18:40;;;;;;;5.18;0.50;;;21.90;52.30;;;22.14;35.64;101001.41;5029843;28;20041;-50
2021/05/09 09:21:22;;;;;;;2.53;0.40;;;22.20;52.20;;;22.40;34.87;100997.03;5031669;28;20037;-49
2021/05/09 09:23:53;;;;;;;1.35;0.28;;;22.60;50.80;;;22.40;35.66;100997.84;5031845;28;20172;-51
2021/05/09 09:26:39;;;;;;;3.53;0.45;;;22.70;51.80;;;22.36;35.79;100996.66;5030212;28;20034;-53
2021/05/09 09:29:25;;;;;;;1.80;0.63;;;22.70;51.60;;;22.41;34.95;100998.66;5031608;28;20033;-52
2021/05/09 09:31:53;;;;;;;1.17;0.30;;;22.70;51.10;;;22.45;35.78;100991.91;5031398;28;20516;-51
2021/05/09 09:34:20;;;;;;;1.50;0.30;;;22.80;51.50;;;21.81;36.29;100992.63;5031758;28;20033;-49
2021/05/09 09:36:46;;;;;;;12.27;0.52;;;22.60;50.90;;;21.79;36.44;100994.66;5031663;28;20661;-50
2021/05/09 09:39:13;;;;;;;2.25;0.50;;;22.20;52.00;;;22.00;36.09;100994.47;5031691;28;20072;-48
2021/05/09 09:41:49;;;;;;;2.38;0.80;;;22.20;52.00;;;22.37;34.04;100989.50;5031445;28;20186;-54
2021/05/09 09:44:17;;;;;;;3.85;0.75;;;22.60;50.80;;;22.48;34.41;100983.53;5031442;28;20068;-50
2021/05/09 09:46:57;;;;;;;3.95;0.77;;;22.70;50.40;;;22.45;35.10;100989.25;5031365;28;20159;-53
2021/05/09 09:49:25;;;;;;;2.45;0.63;;;22.70;50.90;;;22.97;33.95;100976.78;5031907;28;20076;-53
2021/05/09 09:52:04;;;;;;;3.65;0.93;;;23.00;50.30;;;23.10;33.66;100980.19;5031447;28;20042;-54
2021/05/09 09:54:45;;;;;;;1.13;0.50;;;23.30;50.20;;;23.20;33.49;100977.03;5031113;28;20068;-53
2021/05/09 09:57:12;;;;;;;2.45;0.77;;;23.30;49.70;;;23.21;34.06;100973.34;5031083;28;20045;-51
2021/05/09 09:59:39;;;;;;;1.70;0.77;;;23.50;49.80;;;23.06;33.45;100970.22;5013472;28;20108;-53
2021/05/09 10:02:06;;;;;;;1.70;0.80;;;23.40;47.90;;;23.00;33.03;100971.06;5031130;28;20033;-50
2021/05/09 10:04:34;;;;;;;1.73;0.90;;;23.20;48.80;;;23.01;33.71;100978.00;5031137;28;20026;-52
2021/05/09 10:07:06;;;;;;;4.82;0.70;;;23.30;49.00;;;23.18;33.46;100977.25;5031110;28;20040;-54
2021/05/09 10:09:32;;;;;;;1.70;0.60;;;23.30;49.20;;;23.24;32.71;100972.94;5030996;28;20030;-51
2021/05/09 10:11:58;;;;;;;7.82;0.60;;;23.50;48.80;;;23.42;32.18;100975.66;5028381;28;20041;-53
2021/05/09 10:14:25;;;;;;;2.85;0.68;;;23.70;47.90;;;23.61;31.86;100963.28;5012291;28;21409;-52
2021/05/09 10:16:51;;;;;;;1.60;0.50;;;23.90;47.50;;;23.31;32.50;100960.41;5030374;28;20025;-50
2021/05/09 10:19:24;;;;;;;1.98;0.65;;;23.80;47.70;;;23.60;32.76;100966.97;5029277;28;20159;-51